Time,TemperatureF,DewpointF,PressureIn,WindDirection,WindDirectionDegrees,WindSpeedMPH,WindSpeedGustMPH,Humidity,HourlyPrecipIn,Conditions,Clouds,dailyrainin,SoftwareType,DateUTC
2013-08-21 00:00:00,80.0,76.0,30.07,East,80,10.0,13.0,89,-99.99,,,-99.99,,2013-08-21 05:00:00,
2013-08-21 00:43:00,80.0,76.0,30.07,East,80,10.0,13.0,89,-99.99,,,-99.99,,2013-08-21 05:43:00,
2013-08-21 00:52:00,80.0,76.0,30.07,East,80,10.0,13.0,89,-99.99,,,-99.99,,2013-08-21 05:52:00,
2013-08-21 01:00:00,81.0,76.0,30.06,East,90,14.0,15.0,87,-99.99,,,-99.99,,2013-08-21 06:00:00,
2013-08-21 01:42:00,81.0,76.0,30.06,East,90,14.0,15.0,87,-99.99,,,-99.99,,2013-08-21 06:42:00,
2013-08-21 01:52:00,81.0,76.0,30.06,East,90,14.0,15.0,87,-99.99,,,-99.99,,2013-08-21 06:52:00,
2013-08-21 02:00:00,80.0,76.0,30.06,East,80,14.0,16.0,89,-99.99,,,-99.99,,2013-08-21 07:00:00,
2013-08-21 02:42:00,80.0,76.0,30.06,East,80,14.0,16.0,89,-99.99,,,-99.99,,2013-08-21 07:42:00,
2013-08-21 02:53:00,80.0,76.0,30.06,East,80,14.0,16.0,89,-99.99,,,-99.99,,2013-08-21 07:53:00,
2013-08-21 03:00:00,80.0,73.0,30.05,ESE,120,13.0,14.0,80,-99.99,,,-99.99,,2013-08-21 08:00:00,
2013-08-21 03:43:00,80.0,73.0,30.05,ESE,120,13.0,14.0,80,-99.99,,,-99.99,,2013-08-21 08:43:00,
2013-08-21 03:52:00,80.0,73.0,30.05,ESE,120,13.0,14.0,80,-99.99,,,-99.99,,2013-08-21 08:52:00,
2013-08-21 04:00:00,81.0,74.0,30.04,ESE,110,15.0,17.0,81,-99.99,,,-99.99,,2013-08-21 09:00:00,
2013-08-21 04:43:00,81.0,74.0,30.04,ESE,110,15.0,17.0,81,-99.99,,,-99.99,,2013-08-21 09:43:00,
2013-08-21 04:53:00,81.0,74.0,30.04,ESE,110,15.0,17.0,81,-99.99,,,-99.99,,2013-08-21 09:53:00,
2013-08-21 05:00:00,80.0,75.0,30.05,East,90,10.0,11.0,82,-99.99,,,-99.99,,2013-08-21 10:00:00,
2013-08-21 05:42:00,80.0,75.0,30.05,East,90,10.0,11.0,82,-99.99,,,-99.99,,2013-08-21 10:42:00,
2013-08-21 05:52:00,80.0,75.0,30.05,East,90,10.0,11.0,82,-99.99,,,-99.99,,2013-08-21 10:52:00,
2013-08-21 06:00:00,79.0,77.0,30.08,East,80,13.0,14.0,92,-99.99,,,-99.99,,2013-08-21 11:00:00,
2013-08-21 06:42:00,79.0,77.0,30.08,East,80,13.0,14.0,92,-99.99,,,-99.99,,2013-08-21 11:42:00,
2013-08-21 06:52:00,79.0,77.0,30.08,East,80,13.0,14.0,92,-99.99,,,-99.99,,2013-08-21 11:52:00,
2013-08-21 07:00:00,80.0,77.0,30.09,ENE,70,11.0,13.0,90,-99.99,,,-99.99,,2013-08-21 12:00:00,
2013-08-21 07:41:00,80.0,77.0,30.09,ENE,70,11.0,13.0,90,-99.99,,,-99.99,,2013-08-21 12:41:00,
2013-08-21 07:52:00,80.0,77.0,30.09,ENE,70,11.0,13.0,90,-99.99,,,-99.99,,2013-08-21 12:52:00,
2013-08-21 08:00:00,79.0,75.0,30.10,East,90,6.0,8.0,85,-99.99,,,-99.99,,2013-08-21 13:00:00,
2013-08-21 08:41:00,79.0,75.0,30.10,East,90,6.0,8.0,85,-99.99,,,-99.99,,2013-08-21 13:41:00,
2013-08-21 08:52:00,79.0,75.0,30.10,East,90,6.0,8.0,85,-99.99,,,-99.99,,2013-08-21 13:52:00,
2013-08-21 09:00:00,81.0,72.0,30.11,East,90,7.0,9.0,75,-99.99,,,-99.99,,2013-08-21 14:00:00,
2013-08-21 09:42:00,81.0,72.0,30.11,East,90,7.0,9.0,75,-99.99,,,-99.99,,2013-08-21 14:42:00,
2013-08-21 09:52:00,81.0,72.0,30.11,East,90,7.0,9.0,75,-99.99,,,-99.99,,2013-08-21 14:52:00,
2013-08-21 10:00:00,80.0,73.0,30.12,East,80,8.0,9.0,79,-99.99,,,-99.99,,2013-08-21 15:00:00,
2013-08-21 10:43:00,80.0,73.0,30.12,East,80,8.0,9.0,79,-99.99,,,-99.99,,2013-08-21 15:43:00,
2013-08-21 10:54:00,80.0,73.0,30.12,East,80,8.0,9.0,79,-99.99,,,-99.99,,2013-08-21 15:54:00,
2013-08-21 11:00:00,80.0,76.0,30.13,NE,50,7.0,8.0,86,-99.99,,,-99.99,,2013-08-21 16:00:00,
2013-08-21 11:43:00,80.0,76.0,30.13,NE,50,7.0,8.0,86,-99.99,,,-99.99,,2013-08-21 16:43:00,
2013-08-21 11:53:00,80.0,76.0,30.13,NE,50,7.0,8.0,86,-99.99,,,-99.99,,2013-08-21 16:53:00,
2013-08-21 12:00:00,80.0,76.0,30.12,NE,40,8.0,9.0,88,-99.99,,,-99.99,,2013-08-21 17:00:00,
2013-08-21 12:43:00,80.0,76.0,30.12,NE,40,8.0,9.0,88,-99.99,,,-99.99,,2013-08-21 17:43:00,
2013-08-21 12:53:00,80.0,76.0,30.12,NE,40,8.0,9.0,88,-99.99,,,-99.99,,2013-08-21 17:53:00,
2013-08-21 13:00:00,81.0,76.0,30.10,NE,40,8.0,9.0,84,-99.99,,,-99.99,,2013-08-21 18:00:00,
2013-08-21 13:41:00,81.0,76.0,30.10,NE,40,8.0,9.0,84,-99.99,,,-99.99,,2013-08-21 18:41:00,
2013-08-21 13:52:00,81.0,76.0,30.10,NE,40,8.0,9.0,84,-99.99,,,-99.99,,2013-08-21 18:52:00,
2013-08-21 14:00:00,82.0,77.0,30.09,SE,130,10.0,11.0,84,-99.99,,,-99.99,,2013-08-21 19:00:00,
2013-08-21 14:42:00,82.0,77.0,30.09,SE,130,10.0,11.0,84,-99.99,,,-99.99,,2013-08-21 19:42:00,
2013-08-21 14:52:00,82.0,77.0,30.09,SE,130,10.0,11.0,84,-99.99,,,-99.99,,2013-08-21 19:52:00,
2013-08-21 15:00:00,83.0,70.0,30.08,East,100,9.0,10.0,64,-99.99,,,-99.99,,2013-08-21 20:00:00,
2013-08-21 15:42:00,83.0,70.0,30.08,East,100,9.0,10.0,64,-99.99,,,-99.99,,2013-08-21 20:42:00,
2013-08-21 15:52:00,83.0,70.0,30.08,East,100,9.0,10.0,64,-99.99,,,-99.99,,2013-08-21 20:52:00,
2013-08-21 16:00:00,83.0,76.0,30.04,East,80,8.0,8.0,77,-99.99,,,-99.99,,2013-08-21 21:00:00,
2013-08-21 16:44:00,83.0,76.0,30.04,East,80,8.0,8.0,77,-99.99,,,-99.99,,2013-08-21 21:44:00,
2013-08-21 16:54:00,83.0,76.0,30.04,East,80,8.0,8.0,77,-99.99,,,-99.99,,2013-08-21 21:54:00,
2013-08-21 17:00:00,83.0,77.0,30.06,SE,130,8.0,8.0,81,-99.99,,,-99.99,,2013-08-21 22:00:00,
2013-08-21 17:43:00,83.0,77.0,30.06,SE,130,8.0,8.0,81,-99.99,,,-99.99,,2013-08-21 22:43:00,
2013-08-21 17:53:00,83.0,77.0,30.06,SE,130,8.0,8.0,81,-99.99,,,-99.99,,2013-08-21 22:53:00,
2013-08-21 18:00:00,83.0,78.0,30.06,SE,130,5.0,6.0,85,-99.99,,,-99.99,,2013-08-21 23:00:00,
2013-08-21 18:42:00,83.0,78.0,30.06,SE,130,5.0,6.0,85,-99.99,,,-99.99,,2013-08-21 23:42:00,
2013-08-21 18:52:00,83.0,78.0,30.06,SE,130,5.0,6.0,85,-99.99,,,-99.99,,2013-08-21 23:52:00,
2013-08-21 19:00:00,83.0,76.0,30.06,ENE,60,8.0,8.0,79,-99.99,,,-99.99,,2013-08-22 00:00:00,
2013-08-21 19:42:00,83.0,76.0,30.06,ENE,60,8.0,8.0,79,-99.99,,,-99.99,,2013-08-22 00:42:00,
2013-08-21 19:52:00,83.0,76.0,30.06,ENE,60,8.0,8.0,79,-99.99,,,-99.99,,2013-08-22 00:52:00,
2013-08-21 20:00:00,82.0,74.0,30.04,ENE,60,15.0,16.0,77,-99.99,,,-99.99,,2013-08-22 01:00:00,
2013-08-21 20:42:00,82.0,74.0,30.04,ENE,60,15.0,16.0,77,-99.99,,,-99.99,,2013-08-22 01:42:00,
2013-08-21 20:52:00,82.0,74.0,30.04,ENE,60,15.0,16.0,77,-99.99,,,-99.99,,2013-08-22 01:52:00,
2013-08-21 21:00:00,81.0,75.0,30.08,ENE,70,14.0,15.0,81,-99.99,,,-99.99,,2013-08-22 02:00:00,
2013-08-21 21:52:00,81.0,75.0,30.08,ENE,70,14.0,15.0,81,-99.99,,,-99.99,,2013-08-22 02:52:00,
2013-08-21 22:00:00,80.0,74.0,30.09,ENE,60,17.0,18.0,81,-99.99,,,-99.99,,2013-08-22 03:00:00,
2013-08-21 22:44:00,80.0,74.0,30.09,ENE,60,17.0,18.0,81,-99.99,,,-99.99,,2013-08-22 03:44:00,
2013-08-21 22:54:00,80.0,74.0,30.09,ENE,60,17.0,18.0,81,-99.99,,,-99.99,,2013-08-22 03:54:00,
2013-08-21 23:00:00,80.0,74.0,30.09,East,80,18.0,21.0,81,-99.99,,,-99.99,,2013-08-22 04:00:00,
2013-08-21 23:44:00,80.0,74.0,30.09,East,80,18.0,21.0,81,-99.99,,,-99.99,,2013-08-22 04:44:00,
2013-08-21 23:54:00,80.0,74.0,30.09,East,80,18.0,21.0,81,-99.99,,,-99.99,,2013-08-22 04:54:00,